sensor_id;sensor_type;location;lat;lon;timestamp;P1;durP1;ratioP1;P2;durP2;ratioP2
48813;SDS011;34634;44.108;3.074;2023-02-28T00:00:23;15.80;;;9.80;;
48813;SDS011;34634;44.108;3.074;2023-02-28T00:02:49;14.82;;;9.20;;
48813;SDS011;34634;44.108;3.074;2023-02-28T00:05:17;13.32;;;9.73;;
48813;SDS011;34634;44.108;3.074;2023-02-28T00:07:44;16.55;;;10.88;;
48813;SDS011;34634;44.108;3.074;2023-02-28T00:10:14;18.20;;;10.07;;
48813;SDS011;34634;44.108;3.074;2023-02-28T00:12:40;14.98;;;9.63;;
48813;SDS011;34634;44.108;3.074;2023-02-28T00:15:08;15.57;;;9.90;;
48813;SDS011;34634;44.108;3.074;2023-02-28T00:17:35;17.38;;;9.88;;
48813;SDS011;34634;44.108;3.074;2023-02-28T00:20:02;14.82;;;9.15;;
48813;SDS011;34634;44.108;3.074;2023-02-28T00:22:29;14.02;;;9.32;;
48813;SDS011;34634;44.108;3.074;2023-02-28T00:24:56;12.80;;;9.23;;
48813;SDS011;34634;44.108;3.074;2023-02-28T00:27:22;15.93;;;9.90;;
48813;SDS011;34634;44.108;3.074;2023-02-28T00:29:48;15.50;;;9.73;;
48813;SDS011;34634;44.108;3.074;2023-02-28T00:32:15;15.82;;;9.73;;
48813;SDS011;34634;44.108;3.074;2023-02-28T00:34:41;13.25;;;9.70;;
48813;SDS011;34634;44.108;3.074;2023-02-28T00:37:08;13.82;;;9.57;;
48813;SDS011;34634;44.108;3.074;2023-02-28T00:39:36;14.93;;;9.38;;
48813;SDS011;34634;44.108;3.074;2023-02-28T00:42:03;15.43;;;8.73;;
48813;SDS011;34634;44.108;3.074;2023-02-28T00:44:30;12.50;;;8.80;;
48813;SDS011;34634;44.108;3.074;2023-02-28T00:46:56;15.07;;;9.52;;
48813;SDS011;34634;44.108;3.074;2023-02-28T00:49:23;14.65;;;8.88;;
48813;SDS011;34634;44.108;3.074;2023-02-28T00:51:49;14.30;;;8.65;;
48813;SDS011;34634;44.108;3.074;2023-02-28T00:54:16;15.27;;;8.57;;
48813;SDS011;34634;44.108;3.074;2023-02-28T00:56:42;12.82;;;8.68;;
48813;SDS011;34634;44.108;3.074;2023-02-28T00:59:09;15.43;;;8.55;;
48813;SDS011;34634;44.108;3.074;2023-02-28T01:01:36;13.02;;;8.55;;
48813;SDS011;34634;44.108;3.074;2023-02-28T01:04:02;17.00;;;8.40;;
48813;SDS011;34634;44.108;3.074;2023-02-28T01:06:29;16.52;;;8.95;;
48813;SDS011;34634;44.108;3.074;2023-02-28T01:08:55;13.88;;;8.88;;
48813;SDS011;34634;44.108;3.074;2023-02-28T01:11:21;14.13;;;8.45;;
48813;SDS011;34634;44.108;3.074;2023-02-28T01:13:48;12.63;;;8.23;;
48813;SDS011;34634;44.108;3.074;2023-02-28T01:16:14;14.13;;;8.80;;
48813;SDS011;34634;44.108;3.074;2023-02-28T01:18:40;13.13;;;8.82;;
48813;SDS011;34634;44.108;3.074;2023-02-28T01:21:08;14.65;;;9.50;;
48813;SDS011;34634;44.108;3.074;2023-02-28T01:23:34;11.65;;;8.93;;
48813;SDS011;34634;44.108;3.074;2023-02-28T01:26:08;13.65;;;8.20;;
48813;SDS011;34634;44.108;3.074;2023-02-28T01:28:35;11.73;;;7.95;;
48813;SDS011;34634;44.108;3.074;2023-02-28T01:31:01;14.02;;;7.93;;
48813;SDS011;34634;44.108;3.074;2023-02-28T01:33:28;12.98;;;8.23;;
48813;SDS011;34634;44.108;3.074;2023-02-28T01:36:01;13.30;;;8.73;;
48813;SDS011;34634;44.108;3.074;2023-02-28T01:38:28;11.98;;;8.38;;
48813;SDS011;34634;44.108;3.074;2023-02-28T01:40:54;12.05;;;8.45;;
48813;SDS011;34634;44.108;3.074;2023-02-28T01:45:47;11.38;;;7.85;;
48813;SDS011;34634;44.108;3.074;2023-02-28T01:48:13;11.60;;;8.35;;
48813;SDS011;34634;44.108;3.074;2023-02-28T01:50:41;11.85;;;7.32;;
48813;SDS011;34634;44.108;3.074;2023-02-28T01:53:11;10.35;;;7.75;;
48813;SDS011;34634;44.108;3.074;2023-02-28T01:55:38;11.35;;;7.93;;
48813;SDS011;34634;44.108;3.074;2023-02-28T01:58:05;12.77;;;8.82;;
48813;SDS011;34634;44.108;3.074;2023-02-28T02:00:34;11.63;;;7.80;;
48813;SDS011;34634;44.108;3.074;2023-02-28T02:03:03;12.02;;;8.32;;
48813;SDS011;34634;44.108;3.074;2023-02-28T02:05:30;12.57;;;7.60;;
48813;SDS011;34634;44.108;3.074;2023-02-28T02:08:00;12.75;;;8.38;;
48813;SDS011;34634;44.108;3.074;2023-02-28T02:13:03;13.15;;;7.93;;
48813;SDS011;34634;44.108;3.074;2023-02-28T02:15:36;10.30;;;7.75;;
48813;SDS011;34634;44.108;3.074;2023-02-28T02:18:09;11.43;;;8.07;;
48813;SDS011;34634;44.108;3.074;2023-02-28T02:20:51;10.75;;;8.00;;
48813;SDS011;34634;44.108;3.074;2023-02-28T02:23:27;12.52;;;8.20;;
48813;SDS011;34634;44.108;3.074;2023-02-28T02:28:56;10.88;;;7.93;;
48813;SDS011;34634;44.108;3.074;2023-02-28T02:31:33;9.60;;;7.47;;
48813;SDS011;34634;44.108;3.074;2023-02-28T02:36:41;11.32;;;8.23;;
48813;SDS011;34634;44.108;3.074;2023-02-28T02:39:13;10.95;;;8.27;;
48813;SDS011;34634;44.108;3.074;2023-02-28T02:41:43;13.70;;;8.80;;
48813;SDS011;34634;44.108;3.074;2023-02-28T02:44:20;12.30;;;8.40;;
48813;SDS011;34634;44.108;3.074;2023-02-28T02:46:48;12.07;;;7.45;;
48813;SDS011;34634;44.108;3.074;2023-02-28T02:49:17;12.57;;;8.10;;
48813;SDS011;34634;44.108;3.074;2023-02-28T02:51:44;10.90;;;8.20;;
48813;SDS011;34634;44.108;3.074;2023-02-28T02:56:42;12.20;;;8.27;;
48813;SDS011;34634;44.108;3.074;2023-02-28T02:59:10;12.25;;;7.72;;
48813;SDS011;34634;44.108;3.074;2023-02-28T03:01:37;11.40;;;7.72;;
48813;SDS011;34634;44.108;3.074;2023-02-28T03:04:10;12.50;;;7.32;;
48813;SDS011;34634;44.108;3.074;2023-02-28T03:06:37;10.10;;;8.00;;
48813;SDS011;34634;44.108;3.074;2023-02-28T03:09:03;12.20;;;7.47;;
48813;SDS011;34634;44.108;3.074;2023-02-28T03:11:30;11.90;;;7.00;;
48813;SDS011;34634;44.108;3.074;2023-02-28T03:26:30;13.02;;;6.93;;
48813;SDS011;34634;44.108;3.074;2023-02-28T03:29:05;11.15;;;7.00;;
48813;SDS011;34634;44.108;3.074;2023-02-28T03:31:35;10.73;;;7.07;;
48813;SDS011;34634;44.108;3.074;2023-02-28T03:34:14;11.40;;;7.32;;
48813;SDS011;34634;44.108;3.074;2023-02-28T03:36:46;9.13;;;7.10;;
48813;SDS011;34634;44.108;3.074;2023-02-28T03:39:14;11.15;;;7.03;;
48813;SDS011;34634;44.108;3.074;2023-02-28T03:41:43;20.92;;;10.23;;
48813;SDS011;34634;44.108;3.074;2023-02-28T03:44:17;26.75;;;10.85;;
48813;SDS011;34634;44.108;3.074;2023-02-28T03:46:52;17.63;;;8.98;;
48813;SDS011;34634;44.108;3.074;2023-02-28T03:49:21;20.35;;;11.15;;
48813;SDS011;34634;44.108;3.074;2023-02-28T03:51:49;13.23;;;8.73;;
48813;SDS011;34634;44.108;3.074;2023-02-28T03:54:18;11.52;;;7.93;;
48813;SDS011;34634;44.108;3.074;2023-02-28T03:56:51;12.57;;;8.13;;
48813;SDS011;34634;44.108;3.074;2023-02-28T03:59:26;12.63;;;7.88;;
48813;SDS011;34634;44.108;3.074;2023-02-28T04:01:54;13.95;;;8.15;;
48813;SDS011;34634;44.108;3.074;2023-02-28T04:04:23;16.63;;;10.20;;
48813;SDS011;34634;44.108;3.074;2023-02-28T04:06:50;12.18;;;8.10;;
48813;SDS011;34634;44.108;3.074;2023-02-28T04:09:17;17.33;;;9.80;;
48813;SDS011;34634;44.108;3.074;2023-02-28T04:11:44;14.05;;;9.15;;
48813;SDS011;34634;44.108;3.074;2023-02-28T04:14:11;11.38;;;7.50;;
48813;SDS011;34634;44.108;3.074;2023-02-28T04:16:39;12.75;;;8.43;;
48813;SDS011;34634;44.108;3.074;2023-02-28T04:19:06;11.93;;;7.85;;
48813;SDS011;34634;44.108;3.074;2023-02-28T04:22:07;10.68;;;7.68;;
48813;SDS011;34634;44.108;3.074;2023-02-28T04:24:26;13.95;;;9.00;;
48813;SDS011;34634;44.108;3.074;2023-02-28T04:26:53;15.95;;;10.10;;
48813;SDS011;34634;44.108;3.074;2023-02-28T04:29:25;16.58;;;10.32;;
48813;SDS011;34634;44.108;3.074;2023-02-28T04:31:52;14.52;;;8.98;;
48813;SDS011;34634;44.108;3.074;2023-02-28T04:34:18;16.45;;;9.63;;
48813;SDS011;34634;44.108;3.074;2023-02-28T04:36:46;13.75;;;8.68;;
48813;SDS011;34634;44.108;3.074;2023-02-28T04:39:19;15.90;;;9.82;;
48813;SDS011;34634;44.108;3.074;2023-02-28T04:41:45;11.18;;;7.80;;
48813;SDS011;34634;44.108;3.074;2023-02-28T04:44:12;16.38;;;8.98;;
48813;SDS011;34634;44.108;3.074;2023-02-28T04:46:38;11.32;;;8.00;;
48813;SDS011;34634;44.108;3.074;2023-02-28T04:49:05;9.88;;;7.57;;
48813;SDS011;34634;44.108;3.074;2023-02-28T04:51:31;11.15;;;7.70;;
48813;SDS011;34634;44.108;3.074;2023-02-28T04:53:57;15.45;;;9.68;;
48813;SDS011;34634;44.108;3.074;2023-02-28T04:56:24;16.27;;;9.65;;
48813;SDS011;34634;44.108;3.074;2023-02-28T04:58:50;18.02;;;10.63;;
48813;SDS011;34634;44.108;3.074;2023-02-28T05:03:44;15.88;;;9.88;;
48813;SDS011;34634;44.108;3.074;2023-02-28T05:06:11;12.73;;;8.45;;
48813;SDS011;34634;44.108;3.074;2023-02-28T05:08:38;10.95;;;8.02;;
48813;SDS011;34634;44.108;3.074;2023-02-28T05:11:06;12.57;;;8.05;;
48813;SDS011;34634;44.108;3.074;2023-02-28T05:13:33;13.45;;;8.80;;
48813;SDS011;34634;44.108;3.074;2023-02-28T05:16:01;12.00;;;8.23;;
48813;SDS011;34634;44.108;3.074;2023-02-28T05:18:27;12.65;;;8.05;;
48813;SDS011;34634;44.108;3.074;2023-02-28T05:20:53;12.73;;;7.90;;
48813;SDS011;34634;44.108;3.074;2023-02-28T05:23:19;13.50;;;7.75;;
48813;SDS011;34634;44.108;3.074;2023-02-28T05:25:47;15.70;;;7.55;;
48813;SDS011;34634;44.108;3.074;2023-02-28T05:28:14;11.35;;;7.22;;
48813;SDS011;34634;44.108;3.074;2023-02-28T05:30:40;11.57;;;7.97;;
48813;SDS011;34634;44.108;3.074;2023-02-28T05:33:06;10.93;;;7.68;;
48813;SDS011;34634;44.108;3.074;2023-02-28T05:35:32;11.68;;;7.82;;
48813;SDS011;34634;44.108;3.074;2023-02-28T05:37:59;11.88;;;7.93;;
48813;SDS011;34634;44.108;3.074;2023-02-28T05:40:25;13.65;;;8.85;;
48813;SDS011;34634;44.108;3.074;2023-02-28T05:42:51;13.02;;;8.20;;
48813;SDS011;34634;44.108;3.074;2023-02-28T05:45:18;9.27;;;7.20;;
48813;SDS011;34634;44.108;3.074;2023-02-28T05:47:44;14.30;;;7.88;;
48813;SDS011;34634;44.108;3.074;2023-02-28T05:50:10;11.43;;;7.93;;
48813;SDS011;34634;44.108;3.074;2023-02-28T05:52:37;14.07;;;8.30;;
48813;SDS011;34634;44.108;3.074;2023-02-28T05:55:03;13.18;;;8.68;;
48813;SDS011;34634;44.108;3.074;2023-02-28T05:57:30;14.38;;;8.32;;
48813;SDS011;34634;44.108;3.074;2023-02-28T05:59:56;14.93;;;8.55;;
48813;SDS011;34634;44.108;3.074;2023-02-28T06:02:22;13.30;;;8.68;;
48813;SDS011;34634;44.108;3.074;2023-02-28T06:04:49;13.00;;;8.25;;
48813;SDS011;34634;44.108;3.074;2023-02-28T06:07:15;10.82;;;7.25;;
48813;SDS011;34634;44.108;3.074;2023-02-28T06:09:42;14.48;;;7.60;;
48813;SDS011;34634;44.108;3.074;2023-02-28T06:12:09;9.02;;;7.53;;
48813;SDS011;34634;44.108;3.074;2023-02-28T06:14:35;13.52;;;8.15;;
48813;SDS011;34634;44.108;3.074;2023-02-28T06:17:02;10.75;;;8.05;;
48813;SDS011;34634;44.108;3.074;2023-02-28T06:19:29;10.20;;;8.25;;
48813;SDS011;34634;44.108;3.074;2023-02-28T06:21:56;13.90;;;7.82;;
48813;SDS011;34634;44.108;3.074;2023-02-28T06:24:22;12.77;;;8.65;;
48813;SDS011;34634;44.108;3.074;2023-02-28T06:26:49;11.20;;;7.75;;
48813;SDS011;34634;44.108;3.074;2023-02-28T06:29:16;14.07;;;8.25;;
48813;SDS011;34634;44.108;3.074;2023-02-28T06:31:44;12.65;;;8.20;;
48813;SDS011;34634;44.108;3.074;2023-02-28T06:34:10;13.30;;;7.95;;
48813;SDS011;34634;44.108;3.074;2023-02-28T06:36:40;16.65;;;8.55;;
48813;SDS011;34634;44.108;3.074;2023-02-28T06:39:07;12.70;;;8.48;;
48813;SDS011;34634;44.108;3.074;2023-02-28T06:41:34;13.30;;;7.78;;
48813;SDS011;34634;44.108;3.074;2023-02-28T06:44:12;12.13;;;8.38;;
48813;SDS011;34634;44.108;3.074;2023-02-28T06:46:40;11.10;;;8.18;;
48813;SDS011;34634;44.108;3.074;2023-02-28T06:49:06;13.00;;;8.52;;
48813;SDS011;34634;44.108;3.074;2023-02-28T06:51:39;22.52;;;13.20;;
48813;SDS011;34634;44.108;3.074;2023-02-28T06:54:07;23.13;;;14.18;;
48813;SDS011;34634;44.108;3.074;2023-02-28T06:56:34;15.73;;;9.90;;
48813;SDS011;34634;44.108;3.074;2023-02-28T06:59:01;13.95;;;8.70;;
48813;SDS011;34634;44.108;3.074;2023-02-28T07:01:27;15.00;;;9.35;;
48813;SDS011;34634;44.108;3.074;2023-02-28T07:03:54;15.90;;;9.82;;
48813;SDS011;34634;44.108;3.074;2023-02-28T07:06:21;15.05;;;9.60;;
48813;SDS011;34634;44.108;3.074;2023-02-28T07:08:48;12.48;;;8.25;;
48813;SDS011;34634;44.108;3.074;2023-02-28T07:11:15;11.27;;;7.47;;
48813;SDS011;34634;44.108;3.074;2023-02-28T07:13:41;11.07;;;7.95;;
48813;SDS011;34634;44.108;3.074;2023-02-28T07:16:09;15.65;;;9.65;;
48813;SDS011;34634;44.108;3.074;2023-02-28T07:18:36;13.90;;;8.80;;
48813;SDS011;34634;44.108;3.074;2023-02-28T07:21:03;21.50;;;10.73;;
48813;SDS011;34634;44.108;3.074;2023-02-28T07:23:30;12.77;;;9.48;;
48813;SDS011;34634;44.108;3.074;2023-02-28T07:25:56;23.92;;;12.85;;
48813;SDS011;34634;44.108;3.074;2023-02-28T07:28:22;22.20;;;12.63;;
48813;SDS011;34634;44.108;3.074;2023-02-28T07:30:49;27.30;;;14.18;;
48813;SDS011;34634;44.108;3.074;2023-02-28T07:33:16;27.58;;;14.30;;
48813;SDS011;34634;44.108;3.074;2023-02-28T07:35:42;20.92;;;12.40;;
48813;SDS011;34634;44.108;3.074;2023-02-28T07:38:09;17.17;;;11.20;;
48813;SDS011;34634;44.108;3.074;2023-02-28T07:40:35;16.80;;;10.88;;
48813;SDS011;34634;44.108;3.074;2023-02-28T07:43:02;14.45;;;9.25;;
48813;SDS011;34634;44.108;3.074;2023-02-28T07:45:29;18.42;;;10.13;;
48813;SDS011;34634;44.108;3.074;2023-02-28T07:47:59;17.50;;;10.75;;
48813;SDS011;34634;44.108;3.074;2023-02-28T07:50:26;48.30;;;21.60;;
48813;SDS011;34634;44.108;3.074;2023-02-28T07:52:57;30.08;;;16.35;;
48813;SDS011;34634;44.108;3.074;2023-02-28T07:55:23;40.40;;;21.52;;
48813;SDS011;34634;44.108;3.074;2023-02-28T07:57:49;19.13;;;13.05;;
48813;SDS011;34634;44.108;3.074;2023-02-28T08:00:16;25.48;;;19.25;;
48813;SDS011;34634;44.108;3.074;2023-02-28T08:02:42;18.90;;;9.52;;
48813;SDS011;34634;44.108;3.074;2023-02-28T08:05:09;11.45;;;8.07;;
48813;SDS011;34634;44.108;3.074;2023-02-28T08:07:36;13.85;;;9.02;;
48813;SDS011;34634;44.108;3.074;2023-02-28T08:10:02;12.30;;;8.50;;
48813;SDS011;34634;44.108;3.074;2023-02-28T08:12:30;10.60;;;8.02;;
48813;SDS011;34634;44.108;3.074;2023-02-28T08:14:57;10.95;;;7.50;;
48813;SDS011;34634;44.108;3.074;2023-02-28T08:17:23;11.02;;;7.70;;
48813;SDS011;34634;44.108;3.074;2023-02-28T08:19:49;11.88;;;7.43;;
48813;SDS011;34634;44.108;3.074;2023-02-28T08:22:16;10.32;;;7.50;;
48813;SDS011;34634;44.108;3.074;2023-02-28T08:24:42;17.20;;;9.73;;
48813;SDS011;34634;44.108;3.074;2023-02-28T08:27:09;8.18;;;7.00;;
48813;SDS011;34634;44.108;3.074;2023-02-28T08:29:38;11.18;;;7.35;;
48813;SDS011;34634;44.108;3.074;2023-02-28T08:32:05;10.55;;;6.97;;
48813;SDS011;34634;44.108;3.074;2023-02-28T08:34:32;11.75;;;7.95;;
48813;SDS011;34634;44.108;3.074;2023-02-28T08:36:58;15.15;;;8.27;;
48813;SDS011;34634;44.108;3.074;2023-02-28T08:39:25;14.07;;;8.48;;
48813;SDS011;34634;44.108;3.074;2023-02-28T08:41:52;12.52;;;8.02;;
48813;SDS011;34634;44.108;3.074;2023-02-28T08:44:24;11.80;;;7.55;;
48813;SDS011;34634;44.108;3.074;2023-02-28T08:46:52;11.55;;;7.68;;
48813;SDS011;34634;44.108;3.074;2023-02-28T08:49:18;10.02;;;7.07;;
48813;SDS011;34634;44.108;3.074;2023-02-28T08:51:45;10.15;;;6.85;;
48813;SDS011;34634;44.108;3.074;2023-02-28T08:54:11;11.70;;;7.63;;
48813;SDS011;34634;44.108;3.074;2023-02-28T08:56:38;13.30;;;8.13;;
48813;SDS011;34634;44.108;3.074;2023-02-28T08:59:04;11.95;;;7.93;;
48813;SDS011;34634;44.108;3.074;2023-02-28T09:01:31;11.77;;;7.35;;
48813;SDS011;34634;44.108;3.074;2023-02-28T09:03:58;10.43;;;7.75;;
48813;SDS011;34634;44.108;3.074;2023-02-28T09:06:26;8.55;;;6.38;;
48813;SDS011;34634;44.108;3.074;2023-02-28T09:08:52;9.60;;;6.97;;
48813;SDS011;34634;44.108;3.074;2023-02-28T09:11:19;11.95;;;7.53;;
48813;SDS011;34634;44.108;3.074;2023-02-28T09:13:45;11.20;;;7.93;;
48813;SDS011;34634;44.108;3.074;2023-02-28T09:16:13;13.80;;;7.57;;
48813;SDS011;34634;44.108;3.074;2023-02-28T09:18:39;11.63;;;7.93;;
48813;SDS011;34634;44.108;3.074;2023-02-28T09:21:07;13.02;;;7.88;;
48813;SDS011;34634;44.108;3.074;2023-02-28T09:23:33;10.63;;;7.47;;
48813;SDS011;34634;44.108;3.074;2023-02-28T09:26:00;13.27;;;7.97;;
48813;SDS011;34634;44.108;3.074;2023-02-28T09:28:26;11.68;;;7.45;;
48813;SDS011;34634;44.108;3.074;2023-02-28T09:30:53;16.52;;;8.02;;
48813;SDS011;34634;44.108;3.074;2023-02-28T09:33:20;13.70;;;7.45;;
48813;SDS011;34634;44.108;3.074;2023-02-28T09:35:48;10.95;;;7.10;;
48813;SDS011;34634;44.108;3.074;2023-02-28T09:38:14;12.77;;;7.15;;
48813;SDS011;34634;44.108;3.074;2023-02-28T09:40:47;15.10;;;7.60;;
48813;SDS011;34634;44.108;3.074;2023-02-28T09:43:15;13.75;;;8.23;;
48813;SDS011;34634;44.108;3.074;2023-02-28T09:45:44;9.65;;;7.25;;
48813;SDS011;34634;44.108;3.074;2023-02-28T09:48:23;9.93;;;7.63;;
48813;SDS011;34634;44.108;3.074;2023-02-28T09:50:51;11.30;;;7.22;;
48813;SDS011;34634;44.108;3.074;2023-02-28T09:55:49;10.25;;;6.72;;
48813;SDS011;34634;44.108;3.074;2023-02-28T09:58:30;8.13;;;6.45;;
48813;SDS011;34634;44.108;3.074;2023-02-28T10:01:43;9.20;;;6.45;;
48813;SDS011;34634;44.108;3.074;2023-02-28T10:03:54;9.88;;;6.60;;
48813;SDS011;34634;44.108;3.074;2023-02-28T10:06:28;8.73;;;6.40;;
48813;SDS011;34634;44.108;3.074;2023-02-28T10:08:57;8.18;;;6.28;;
48813;SDS011;34634;44.108;3.074;2023-02-28T10:11:26;7.45;;;6.47;;
48813;SDS011;34634;44.108;3.074;2023-02-28T10:13:55;7.95;;;6.35;;
48813;SDS011;34634;44.108;3.074;2023-02-28T10:16:29;9.30;;;6.22;;
48813;SDS011;34634;44.108;3.074;2023-02-28T10:19:03;9.35;;;6.15;;
48813;SDS011;34634;44.108;3.074;2023-02-28T10:21:31;9.40;;;6.60;;
48813;SDS011;34634;44.108;3.074;2023-02-28T10:24:04;9.43;;;6.50;;
48813;SDS011;34634;44.108;3.074;2023-02-28T10:26:33;8.40;;;6.38;;
48813;SDS011;34634;44.108;3.074;2023-02-28T10:29:00;6.68;;;5.97;;
48813;SDS011;34634;44.108;3.074;2023-02-28T10:31:28;8.60;;;6.40;;
48813;SDS011;34634;44.108;3.074;2023-02-28T10:33:54;8.85;;;6.10;;
48813;SDS011;34634;44.108;3.074;2023-02-28T10:36:21;7.90;;;5.78;;
48813;SDS011;34634;44.108;3.074;2023-02-28T10:38:48;7.90;;;6.10;;
48813;SDS011;34634;44.108;3.074;2023-02-28T10:41:29;8.68;;;6.18;;
48813;SDS011;34634;44.108;3.074;2023-02-28T10:46:58;10.65;;;6.10;;
48813;SDS011;34634;44.108;3.074;2023-02-28T10:49:26;6.97;;;5.97;;
48813;SDS011;34634;44.108;3.074;2023-02-28T10:51:55;6.80;;;6.10;;
48813;SDS011;34634;44.108;3.074;2023-02-28T10:54:32;7.25;;;5.65;;
48813;SDS011;34634;44.108;3.074;2023-02-28T11:00:15;6.32;;;5.47;;
48813;SDS011;34634;44.108;3.074;2023-02-28T11:02:42;6.55;;;5.95;;
48813;SDS011;34634;44.108;3.074;2023-02-28T11:05:25;8.38;;;5.82;;
48813;SDS011;34634;44.108;3.074;2023-02-28T11:07:56;6.07;;;5.22;;
48813;SDS011;34634;44.108;3.074;2023-02-28T11:10:24;6.97;;;5.90;;
48813;SDS011;34634;44.108;3.074;2023-02-28T11:12:54;6.18;;;5.57;;
48813;SDS011;34634;44.108;3.074;2023-02-28T11:15:22;6.50;;;5.65;;
48813;SDS011;34634;44.108;3.074;2023-02-28T11:17:57;6.65;;;5.57;;
48813;SDS011;34634;44.108;3.074;2023-02-28T11:20:24;7.30;;;6.03;;
48813;SDS011;34634;44.108;3.074;2023-02-28T11:22:51;6.57;;;5.80;;
48813;SDS011;34634;44.108;3.074;2023-02-28T11:27:51;8.95;;;5.85;;
48813;SDS011;34634;44.108;3.074;2023-02-28T11:35:46;7.55;;;5.05;;
48813;SDS011;34634;44.108;3.074;2023-02-28T11:38:15;7.75;;;5.70;;
48813;SDS011;34634;44.108;3.074;2023-02-28T11:46:00;6.53;;;4.80;;
48813;SDS011;34634;44.108;3.074;2023-02-28T12:09:20;7.25;;;5.18;;
48813;SDS011;34634;44.108;3.074;2023-02-28T12:11:56;5.55;;;4.65;;
48813;SDS011;34634;44.108;3.074;2023-02-28T12:19:45;7.18;;;4.88;;
48813;SDS011;34634;44.108;3.074;2023-02-28T12:24:53;5.50;;;4.75;;
48813;SDS011;34634;44.108;3.074;2023-02-28T12:27:22;6.40;;;5.25;;
48813;SDS011;34634;44.108;3.074;2023-02-28T12:29:52;6.82;;;5.35;;
48813;SDS011;34634;44.108;3.074;2023-02-28T12:32:33;7.75;;;6.10;;
48813;SDS011;34634;44.108;3.074;2023-02-28T12:37:29;6.97;;;5.40;;
48813;SDS011;34634;44.108;3.074;2023-02-28T12:40:08;8.80;;;6.28;;
48813;SDS011;34634;44.108;3.074;2023-02-28T12:42:39;12.07;;;7.13;;
48813;SDS011;34634;44.108;3.074;2023-02-28T12:45:11;7.95;;;6.05;;
48813;SDS011;34634;44.108;3.074;2023-02-28T12:47:38;8.70;;;6.72;;
48813;SDS011;34634;44.108;3.074;2023-02-28T12:50:07;8.45;;;5.65;;
48813;SDS011;34634;44.108;3.074;2023-02-28T12:55:41;13.90;;;7.47;;
48813;SDS011;34634;44.108;3.074;2023-02-28T12:58:13;15.02;;;7.97;;
48813;SDS011;34634;44.108;3.074;2023-02-28T13:08:51;9.93;;;6.80;;
48813;SDS011;34634;44.108;3.074;2023-02-28T13:11:28;20.77;;;12.52;;
48813;SDS011;34634;44.108;3.074;2023-02-28T13:14:05;8.82;;;6.57;;
48813;SDS011;34634;44.108;3.074;2023-02-28T13:17:16;17.10;;;11.80;;
48813;SDS011;34634;44.108;3.074;2023-02-28T13:19:21;7.35;;;5.63;;
48813;SDS011;34634;44.108;3.074;2023-02-28T13:21:48;9.27;;;6.38;;
48813;SDS011;34634;44.108;3.074;2023-02-28T13:29:33;11.82;;;8.90;;
48813;SDS011;34634;44.108;3.074;2023-02-28T13:34:35;13.40;;;9.38;;
48813;SDS011;34634;44.108;3.074;2023-02-28T13:39:58;14.40;;;10.43;;
48813;SDS011;34634;44.108;3.074;2023-02-28T13:47:23;7.13;;;5.97;;
48813;SDS011;34634;44.108;3.074;2023-02-28T13:49:53;9.35;;;6.93;;
48813;SDS011;34634;44.108;3.074;2023-02-28T13:52:20;10.07;;;6.35;;
48813;SDS011;34634;44.108;3.074;2023-02-28T14:05:39;16.00;;;10.57;;
48813;SDS011;34634;44.108;3.074;2023-02-28T14:08:16;10.88;;;6.72;;
48813;SDS011;34634;44.108;3.074;2023-02-28T14:10:44;8.15;;;6.75;;
48813;SDS011;34634;44.108;3.074;2023-02-28T14:20:52;8.07;;;5.65;;
48813;SDS011;34634;44.108;3.074;2023-02-28T14:26:00;7.50;;;5.85;;
48813;SDS011;34634;44.108;3.074;2023-02-28T14:28:40;7.07;;;5.72;;
48813;SDS011;34634;44.108;3.074;2023-02-28T14:31:18;10.32;;;5.85;;
48813;SDS011;34634;44.108;3.074;2023-02-28T14:36:36;11.05;;;5.85;;
48813;SDS011;34634;44.108;3.074;2023-02-28T14:39:06;6.85;;;6.13;;
48813;SDS011;34634;44.108;3.074;2023-02-28T14:41:34;7.88;;;5.40;;
48813;SDS011;34634;44.108;3.074;2023-02-28T14:44:02;9.90;;;6.78;;
48813;SDS011;34634;44.108;3.074;2023-02-28T14:46:36;7.88;;;6.10;;
48813;SDS011;34634;44.108;3.074;2023-02-28T14:49:04;7.00;;;5.68;;
48813;SDS011;34634;44.108;3.074;2023-02-28T14:51:32;8.35;;;5.80;;
48813;SDS011;34634;44.108;3.074;2023-02-28T14:54:00;7.40;;;5.75;;
48813;SDS011;34634;44.108;3.074;2023-02-28T14:56:28;6.43;;;5.30;;
48813;SDS011;34634;44.108;3.074;2023-02-28T14:58:56;9.05;;;6.07;;
48813;SDS011;34634;44.108;3.074;2023-02-28T15:01:23;9.38;;;6.38;;
48813;SDS011;34634;44.108;3.074;2023-02-28T15:04:00;8.32;;;6.10;;
48813;SDS011;34634;44.108;3.074;2023-02-28T15:06:28;7.05;;;5.90;;
48813;SDS011;34634;44.108;3.074;2023-02-28T15:11:54;11.95;;;5.90;;
48813;SDS011;34634;44.108;3.074;2023-02-28T15:14:21;10.00;;;6.35;;
48813;SDS011;34634;44.108;3.074;2023-02-28T15:16:50;9.80;;;6.85;;
48813;SDS011;34634;44.108;3.074;2023-02-28T15:19:30;9.50;;;6.67;;
48813;SDS011;34634;44.108;3.074;2023-02-28T15:22:04;11.27;;;6.38;;
48813;SDS011;34634;44.108;3.074;2023-02-28T15:24:35;10.50;;;6.60;;
48813;SDS011;34634;44.108;3.074;2023-02-28T15:27:04;8.80;;;6.68;;
48813;SDS011;34634;44.108;3.074;2023-02-28T15:29:33;9.20;;;6.57;;
48813;SDS011;34634;44.108;3.074;2023-02-28T15:32:05;10.10;;;6.82;;
48813;SDS011;34634;44.108;3.074;2023-02-28T15:34:39;10.10;;;7.15;;
48813;SDS011;34634;44.108;3.074;2023-02-28T15:39:55;9.05;;;6.60;;
48813;SDS011;34634;44.108;3.074;2023-02-28T15:42:22;10.18;;;7.38;;
48813;SDS011;34634;44.108;3.074;2023-02-28T15:44:49;12.65;;;7.43;;
48813;SDS011;34634;44.108;3.074;2023-02-28T15:52:14;7.20;;;6.32;;
48813;SDS011;34634;44.108;3.074;2023-02-28T15:54:42;11.80;;;7.90;;
48813;SDS011;34634;44.108;3.074;2023-02-28T15:57:13;10.35;;;7.28;;
48813;SDS011;34634;44.108;3.074;2023-02-28T15:59:42;12.38;;;8.63;;
48813;SDS011;34634;44.108;3.074;2023-02-28T16:02:21;15.65;;;10.65;;
48813;SDS011;34634;44.108;3.074;2023-02-28T16:04:55;11.60;;;8.55;;
48813;SDS011;34634;44.108;3.074;2023-02-28T16:07:22;12.10;;;8.30;;
48813;SDS011;34634;44.108;3.074;2023-02-28T16:09:49;13.40;;;8.35;;
48813;SDS011;34634;44.108;3.074;2023-02-28T16:12:16;11.23;;;8.02;;
48813;SDS011;34634;44.108;3.074;2023-02-28T16:14:42;9.60;;;6.95;;
48813;SDS011;34634;44.108;3.074;2023-02-28T16:17:20;10.40;;;7.65;;
48813;SDS011;34634;44.108;3.074;2023-02-28T16:19:47;13.50;;;7.80;;
48813;SDS011;34634;44.108;3.074;2023-02-28T16:22:13;10.55;;;7.43;;
48813;SDS011;34634;44.108;3.074;2023-02-28T16:24:40;29.27;;;15.57;;
48813;SDS011;34634;44.108;3.074;2023-02-28T16:27:06;35.10;;;15.85;;
48813;SDS011;34634;44.108;3.074;2023-02-28T16:29:35;20.05;;;10.60;;
48813;SDS011;34634;44.108;3.074;2023-02-28T16:32:06;16.25;;;10.38;;
48813;SDS011;34634;44.108;3.074;2023-02-28T16:34:32;17.17;;;10.93;;
48813;SDS011;34634;44.108;3.074;2023-02-28T16:36:58;11.65;;;7.93;;
48813;SDS011;34634;44.108;3.074;2023-02-28T16:39:25;12.68;;;8.68;;
48813;SDS011;34634;44.108;3.074;2023-02-28T16:41:51;12.52;;;8.90;;
48813;SDS011;34634;44.108;3.074;2023-02-28T16:44:26;11.80;;;7.68;;
48813;SDS011;34634;44.108;3.074;2023-02-28T16:46:53;15.77;;;8.20;;
48813;SDS011;34634;44.108;3.074;2023-02-28T16:49:20;16.50;;;8.48;;
48813;SDS011;34634;44.108;3.074;2023-02-28T16:51:46;11.52;;;8.60;;
48813;SDS011;34634;44.108;3.074;2023-02-28T16:54:13;13.70;;;8.60;;
48813;SDS011;34634;44.108;3.074;2023-02-28T16:56:40;12.90;;;10.35;;
48813;SDS011;34634;44.108;3.074;2023-02-28T16:59:08;11.40;;;7.68;;
48813;SDS011;34634;44.108;3.074;2023-02-28T17:01:34;12.32;;;9.13;;
48813;SDS011;34634;44.108;3.074;2023-02-28T17:04:01;11.82;;;7.60;;
48813;SDS011;34634;44.108;3.074;2023-02-28T17:06:27;10.55;;;7.55;;